Time;durP1;ratioP1;P1;durP2;ratioP2;P2;SDS_P1;SDS_P2;PMS_P1;PMS_P2;Temp;Humidity;BMP_temperature;BMP_pressure;BME280_temperature;BME280_humidity;BME280_pressure;Samples;Min_cycle;Max_cycle;Signal;HPM_P1;HPM_P2
2023/04/09 00:01:28;;;;;;;16.25;11.27;;;;;;;6.52;100.00;102060.13;6003679;23;20015;-65
2023/04/09 00:03:55;;;;;;;15.25;10.45;;;;;;;6.50;100.00;102054.06;6000352;23;20027;-66
2023/04/09 00:06:21;;;;;;;12.55;9.82;;;;;;;6.33;100.00;102039.47;6008029;23;20051;-67
2023/04/09 00:08:48;;;;;;;19.48;11.52;;;;;;;6.30;100.00;102013.47;6002656;23;20020;-69
2023/04/09 00:11:14;;;;;;;15.13;11.73;;;;;;;6.08;100.00;101999.00;6004341;23;20683;-66
2023/04/09 00:13:41;;;;;;;12.82;9.23;;;;;;;6.43;100.00;102050.66;5991826;23;20044;-66
2023/04/09 00:16:07;;;;;;;15.90;12.20;;;;;;;6.42;100.00;102051.56;6000838;23;20099;-66
2023/04/09 00:18:34;;;;;;;19.55;10.00;;;;;;;5.89;100.00;101961.81;6003105;23;20301;-67
2023/04/09 00:21:01;;;;;;;13.98;10.73;;;;;;;6.33;100.00;102041.22;5996687;23;20028;-66
2023/04/09 00:23:27;;;;;;;11.98;9.43;;;;;;;6.21;100.00;102020.53;5996787;23;20069;-66
2023/04/09 00:25:54;;;;;;;16.50;12.75;;;;;;;6.27;100.00;102054.34;5997986;23;20023;-67
2023/04/09 00:28:20;;;;;;;13.88;10.73;;;;;;;5.89;100.00;101999.16;5997706;23;20015;-65
2023/04/09 00:30:46;;;;;;;13.35;10.77;;;;;;;5.76;100.00;101997.59;5999490;23;20302;-67
2023/04/09 00:33:13;;;;;;;18.05;11.13;;;;;;;5.85;100.00;102015.69;6000450;23;20043;-67
2023/04/09 00:35:39;;;;;;;10.95;9.85;;;;;;;5.96;100.00;102032.13;6001595;23;20061;-65
2023/04/09 00:38:06;;;;;;;12.63;10.20;;;;;;;5.62;100.00;101978.66;6000111;23;20095;-64
2023/04/09 00:40:32;;;;;;;19.95;9.48;;;;;;;5.95;100.00;102042.56;5987510;23;20031;-66
2023/04/09 00:42:59;;;;;;;11.52;10.32;;;;;;;5.89;100.00;102043.44;5995979;23;20716;-65
2023/04/09 00:45:26;;;;;;;12.50;9.73;;;;;;;5.86;100.00;102042.66;5994235;23;20031;-66
2023/04/09 00:47:53;;;;;;;14.35;10.65;;;;;;;5.76;100.00;102031.47;5994867;23;20023;-66
2023/04/09 00:50:20;;;;;;;15.65;11.02;;;;;;;5.69;100.00;102043.69;5988793;23;20031;-65
2023/04/09 00:52:46;;;;;;;14.68;10.23;;;;;;;5.49;100.00;102010.03;5971350;23;20083;-66
2023/04/09 00:55:13;;;;;;;14.57;10.35;;;;;;;5.62;100.00;102039.41;5993711;23;20033;-65
2023/04/09 00:57:40;;;;;;;14.23;11.00;;;;;;;5.60;100.00;102033.34;5999670;23;20107;-65
2023/04/09 01:00:07;;;;;;;12.57;10.23;;;;;;;5.52;100.00;102023.00;6000639;23;20107;-65
2023/04/09 01:02:33;;;;;;;14.73;10.80;;;;;;;5.50;100.00;102032.56;5999824;23;20039;-65
2023/04/09 01:05:00;;;;;;;17.92;11.52;;;;;;;5.01;100.00;101960.13;5989600;23;20053;-66
2023/04/09 01:07:35;;;;;;;20.85;11.68;;;;;;;5.32;100.00;102020.59;6004286;23;20469;-67
2023/04/09 01:10:14;;;;;;;12.82;8.45;;;;;;;5.05;100.00;101974.88;5991495;23;20734;-67
2023/04/09 01:12:59;;;;;;;16.50;11.88;;;;;;;5.36;100.00;102029.25;5993594;23;20028;-68
2023/04/09 01:15:30;;;;;;;14.32;10.00;;;;;;;4.76;100.00;101933.50;5999881;23;20752;-68
2023/04/09 01:18:22;;;;;;;11.02;9.32;;;;;;;5.26;100.00;102023.25;5993691;23;20095;-65
2023/04/09 01:21:01;;;;;;;14.68;8.55;;;;;;;3.88;100.00;101809.38;5975167;23;20037;-64
2023/04/09 01:23:31;;;;;;;12.07;8.95;;;;;;;4.78;100.00;101970.75;5987253;23;20070;-66
2023/04/09 01:26:15;;;;;;;11.27;9.85;;;;;;;4.40;100.00;101905.16;5989540;23;20022;-65
2023/04/09 01:28:45;;;;;;;9.05;7.80;;;;;;;4.74;100.00;101984.66;5990480;23;20216;-65
2023/04/09 01:31:13;;;;;;;12.20;10.95;;;;;;;4.74;100.00;102008.91;5996026;23;20031;-66
2023/04/09 01:33:41;;;;;;;12.23;9.45;;;;;;;4.85;100.00;102026.16;5990217;23;20115;-68
2023/04/09 01:36:08;;;;;;;16.73;9.68;;;;;;;4.40;100.00;101951.94;5999488;23;20030;-68
2023/04/09 01:38:37;;;;;;;14.40;10.93;;;;;;;4.59;100.00;102001.19;5999322;23;20099;-68
2023/04/09 01:41:06;;;;;;;14.00;9.80;;;;;;;4.40;100.00;101972.72;5994634;23;20766;-68
2023/04/09 01:43:33;;;;;;;10.38;9.35;;;;;;;4.78;100.00;102030.56;5991862;23;20094;-68
2023/04/09 01:46:02;;;;;;;10.48;9.38;;;;;;;4.80;100.00;102019.25;5992705;23;20039;-68
2023/04/09 01:48:30;;;;;;;11.95;9.70;;;;;;;4.82;100.00;102028.81;5996407;23;20151;-68
2023/04/09 01:50:57;;;;;;;11.35;9.70;;;;;;;4.85;100.00;102027.06;5994902;23;20020;-70
2023/04/09 01:53:27;;;;;;;14.63;9.30;;;;;;;4.78;100.00;102015.81;5990656;23;20035;-69
2023/04/09 01:55:57;;;;;;;14.15;10.20;;;;;;;4.86;100.00;102020.97;6001599;23;20621;-68
2023/04/09 01:58:24;;;;;;;8.68;7.20;;;;;;;4.49;100.00;101961.44;5999066;23;20070;-68
2023/04/09 02:01:02;;;;;;;8.30;7.50;;;;;;;4.92;100.00;102036.53;6000369;23;20027;-66
2023/04/09 02:03:36;;;;;;;11.07;9.43;;;;;;;4.85;100.00;102010.56;5986258;23;20031;-66
2023/04/09 02:06:16;;;;;;;10.98;9.25;;;;;;;4.83;100.00;102008.00;6004177;23;20034;-65
2023/04/09 02:08:45;;;;;;;8.80;8.05;;;;;;;5.06;100.00;102031.22;5998721;23;20674;-65
2023/04/09 02:11:14;;;;;;;17.55;10.50;;;;;;;5.06;100.00;102030.38;5976472;23;20039;-65
2023/04/09 02:13:42;;;;;;;14.05;10.10;;;;;;;5.05;100.00;102018.22;5994090;23;20019;-66
2023/04/09 02:16:11;;;;;;;14.18;10.32;;;;;;;4.70;100.00;101963.00;5995665;23;20034;-65
2023/04/09 02:18:38;;;;;;;12.55;9.38;;;;;;;5.07;100.00;102025.16;5998931;23;20036;-65
2023/04/09 02:21:05;;;;;;;11.68;9.02;;;;;;;5.11;100.00;102026.88;5997293;23;20861;-65
2023/04/09 02:23:32;;;;;;;11.38;8.70;;;;;;;4.59;100.00;101944.00;5998728;23;20031;-65
2023/04/09 02:25:58;;;;;;;16.75;10.23;;;;;;;5.07;100.00;102019.06;5998611;23;20517;-64
2023/04/09 02:28:25;;;;;;;9.98;8.98;;;;;;;4.95;100.00;102010.50;5996076;23;20627;-65
2023/04/09 02:30:51;;;;;;;11.95;9.10;;;;;;;4.99;100.00;102019.13;5996416;23;20031;-64
2023/04/09 02:33:18;;;;;;;13.13;8.60;;;;;;;4.91;100.00;102014.00;6000572;23;20795;-67
2023/04/09 02:35:44;;;;;;;17.48;9.63;;;;;;;4.85;100.00;102010.56;6001371;23;20086;-66
2023/04/09 02:38:14;;;;;;;14.70;8.35;;;;;;;4.79;100.00;102035.75;5996823;23;21943;-66
2023/04/09 02:40:41;;;;;;;15.02;10.40;;;;;;;4.72;100.00;102005.47;6001907;23;20030;-65
2023/04/09 02:43:08;;;;;;;11.55;8.40;;;;;;;4.09;100.00;101917.50;5995706;23;20020;-65
2023/04/09 02:45:35;;;;;;;12.13;8.93;;;;;;;4.38;100.00;101973.63;5993205;23;20035;-66
2023/04/09 02:48:01;;;;;;;14.30;8.10;;;;;;;4.46;100.00;102005.63;5974999;23;20107;-66
2023/04/09 02:50:28;;;;;;;12.93;9.07;;;;;;;4.39;100.00;102006.53;6002500;23;20093;-66
2023/04/09 02:52:54;;;;;;;11.50;9.02;;;;;;;3.81;100.00;101903.78;5996002;23;20093;-66
2023/04/09 02:55:21;;;;;;;10.65;9.48;;;;;;;4.30;100.00;101999.63;6001077;23;20038;-65
2023/04/09 02:57:47;;;;;;;10.40;8.18;;;;;;;4.09;100.00;101971.16;6001968;23;20023;-66
2023/04/09 03:00:14;;;;;;;17.73;9.45;;;;;;;3.87;100.00;101945.31;6001363;23;20579;-65
2023/04/09 03:02:40;;;;;;;20.27;9.23;;;;;;;4.13;100.00;101998.84;5977014;23;20243;-67
2023/04/09 03:05:07;;;;;;;11.52;8.68;;;;;;;3.66;100.00;101922.00;5999866;23;20055;-69
2023/04/09 03:07:34;;;;;;;14.77;7.50;;;;;;;3.70;100.00;101947.09;5988855;23;20023;-69
2023/04/09 03:10:00;;;;;;;13.77;10.27;;;;;;;3.48;100.00;101913.41;5963141;23;20098;-68
2023/04/09 03:12:27;;;;;;;15.25;9.93;;;;;;;3.79;100.00;101971.28;6004103;23;20042;-67
2023/04/09 03:14:53;;;;;;;12.25;9.18;;;;;;;3.80;100.00;101985.13;5996692;23;20111;-67
2023/04/09 03:17:20;;;;;;;9.90;7.97;;;;;;;3.74;100.00;101977.38;5998810;23;20030;-67
2023/04/09 03:19:46;;;;;;;9.48;8.25;;;;;;;3.38;100.00;101928.16;5999963;23;20100;-66
2023/04/09 03:22:12;;;;;;;10.07;8.88;;;;;;;3.69;100.00;101989.50;6001320;23;20039;-67
2023/04/09 03:24:39;;;;;;;11.30;8.98;;;;;;;3.66;100.00;101984.31;6001819;23;20125;-66
2023/04/09 03:27:05;;;;;;;16.77;10.75;;;;;;;3.59;100.00;101979.16;5998430;23;20023;-65
2023/04/09 03:29:32;;;;;;;15.80;8.10;;;;;;;3.61;100.00;101981.75;5990421;23;20031;-65
2023/04/09 03:31:58;;;;;;;7.78;6.95;;;;;;;3.57;100.00;101982.63;5994917;23;20428;-66
2023/04/09 03:34:24;;;;;;;11.20;8.60;;;;;;;3.53;100.00;101980.91;5990771;23;20028;-64
2023/04/09 03:36:51;;;;;;;9.43;7.45;;;;;;;3.49;100.00;101980.03;6003918;23;20030;-66
2023/04/09 03:39:17;;;;;;;8.65;7.75;;;;;;;3.43;100.00;101977.47;5991284;23;20668;-65
2023/04/09 03:41:43;;;;;;;9.60;8.18;;;;;;;3.41;100.00;101974.00;5982636;23;20089;-65
2023/04/09 03:44:10;;;;;;;10.82;8.38;;;;;;;3.36;100.00;101971.41;6002129;23;20068;-65
2023/04/09 03:46:36;;;;;;;10.95;8.23;;;;;;;1.61;100.00;101670.13;5997922;23;20207;-66
2023/04/09 03:49:03;;;;;;;14.68;7.25;;;;;;;3.33;100.00;101967.97;5991178;23;20034;-68
2023/04/09 03:51:30;;;;;;;9.60;7.65;;;;;;;3.29;100.00;101971.44;5999524;23;20003;-64
2023/04/09 03:53:57;;;;;;;8.50;6.13;;;;;;;3.29;100.00;101990.44;5994229;23;20055;-65
2023/04/09 03:56:23;;;;;;;12.10;7.45;;;;;;;2.70;100.00;101877.25;5994092;23;20625;-67
2023/04/09 03:58:49;;;;;;;9.32;8.35;;;;;;;3.23;100.00;101976.59;6000932;23;20718;-67
2023/04/09 04:01:16;;;;;;;7.47;6.72;;;;;;;3.14;100.00;101970.56;5999172;23;20900;-66
2023/04/09 04:03:43;;;;;;;7.47;6.82;;;;;;;3.11;100.00;101968.00;5950145;23;20023;-64
2023/04/09 04:06:09;;;;;;;7.47;6.78;;;;;;;3.13;100.00;101976.63;5999542;23;20086;-68
2023/04/09 04:08:35;;;;;;;9.98;9.07;;;;;;;2.53;100.00;101887.66;5986966;23;20037;-68
2023/04/09 04:11:03;;;;;;;7.60;6.80;;;;;;;2.99;100.00;101971.44;6004267;23;20027;-67
2023/04/09 04:13:30;;;;;;;8.95;7.40;;;;;;;2.97;100.00;101980.09;5989615;23;20093;-67
2023/04/09 04:15:57;;;;;;;8.80;7.95;;;;;;;2.34;100.00;101879.84;6001436;23;20039;-68
2023/04/09 04:18:23;;;;;;;10.27;8.25;;;;;;;2.92;100.00;101981.81;5989860;23;20045;-67
2023/04/09 04:20:50;;;;;;;9.07;7.45;;;;;;;2.76;100.00;101952.44;5998865;23;20023;-68
2023/04/09 04:23:16;;;;;;;7.47;6.28;;;;;;;2.86;100.00;101974.91;5989749;23;20025;-68
2023/04/09 04:25:42;;;;;;;12.43;7.93;;;;;;;2.85;100.00;101975.78;5989642;23;20089;-68
2023/04/09 04:28:09;;;;;;;8.15;7.10;;;;;;;2.63;100.00;101948.13;5998628;23;20035;-67
2023/04/09 04:30:35;;;;;;;9.70;6.97;;;;;;;2.78;100.00;101990.44;5994142;23;20123;-68
2023/04/09 04:33:02;;;;;;;8.88;8.18;;;;;;;2.23;100.00;101894.50;5994512;23;20154;-67
2023/04/09 04:35:28;;;;;;;8.43;7.65;;;;;;;2.77;100.00;101974.91;5996290;23;20090;-68
2023/04/09 04:37:55;;;;;;;7.80;7.05;;;;;;;2.74;100.00;101983.53;5983401;23;20200;-68
2023/04/09 04:40:21;;;;;;;14.18;7.75;;;;;;;2.76;100.00;101986.97;5996639;23;20094;-67
2023/04/09 04:42:47;;;;;;;11.80;6.25;;;;;;;2.59;100.00;101957.59;5988999;23;20027;-68
2023/04/09 04:45:14;;;;;;;13.55;8.40;;;;;;;2.72;100.00;101987.84;5995858;23;20034;-68
2023/04/09 04:47:40;;;;;;;10.43;6.05;;;;;;;2.73;100.00;101988.72;5988547;23;20093;-68
2023/04/09 04:50:07;;;;;;;7.32;6.65;;;;;;;2.68;100.00;101988.69;5999846;23;20034;-68
2023/04/09 04:52:35;;;;;;;7.15;6.00;;;;;;;2.69;100.00;101992.19;5988826;23;20028;-68
2023/04/09 04:55:01;;;;;;;13.35;8.60;;;;;;;2.67;100.00;101991.31;5999269;23;20034;-68
2023/04/09 04:57:28;;;;;;;10.43;7.50;;;;;;;2.63;100.00;101995.63;5987016;23;20485;-67
2023/04/09 04:59:54;;;;;;;12.65;7.80;;;;;;;2.63;100.00;101992.19;6001763;23;20027;-67
2023/04/09 05:02:21;;;;;;;8.50;7.72;;;;;;;2.64;100.00;101996.47;5994874;23;20085;-68
2023/04/09 05:04:47;;;;;;;7.32;6.60;;;;;;;2.10;100.00;101906.56;5994433;23;20529;-69
2023/04/09 05:07:14;;;;;;;7.13;6.53;;;;;;;2.40;100.00;101954.97;5992740;23;20058;-70
2023/04/09 05:09:41;;;;;;;8.80;6.90;;;;;;;2.11;100.00;101897.09;5996757;23;20099;-69
2023/04/09 05:12:10;;;;;;;9.80;8.63;;;;;;;2.70;100.00;102002.53;5994730;23;20093;-69
2023/04/09 05:14:37;;;;;;;7.03;6.30;;;;;;;2.46;100.00;101961.88;5989240;23;20027;-69
2023/04/09 05:17:03;;;;;;;7.88;7.18;;;;;;;2.73;100.00;102006.88;5994747;23;20538;-68
2023/04/09 05:19:32;;;;;;;7.20;6.18;;;;;;;2.75;100.00;102000.81;5970832;23;20027;-70
2023/04/09 05:21:58;;;;;;;9.88;6.13;;;;;;;2.71;100.00;101993.91;5997753;23;20024;-69
2023/04/09 05:24:25;;;;;;;8.38;6.32;;;;;;;2.78;100.00;102000.81;5992358;23;20357;-69
2023/04/09 05:26:51;;;;;;;8.35;7.57;;;;;;;2.84;100.00;102009.47;5998888;23;20066;-69
2023/04/09 05:29:18;;;;;;;6.28;5.65;;;;;;;2.92;100.00;102007.75;5993976;23;20519;-69
2023/04/09 05:31:44;;;;;;;9.02;7.43;;;;;;;3.00;100.00;102001.69;5989821;23;20081;-70
2023/04/09 05:34:10;;;;;;;8.00;7.05;;;;;;;3.08;100.00;102006.88;6002385;23;20442;-70
2023/04/09 05:36:37;;;;;;;10.82;7.90;;;;;;;3.17;100.00;102008.63;5989903;23;20043;-69
2023/04/09 05:39:03;;;;;;;10.75;7.45;;;;;;;3.20;100.00;101998.22;5999898;23;20050;-70
2023/04/09 05:41:31;;;;;;;8.30;7.50;;;;;;;3.34;100.00;102001.69;6001553;23;20012;-68
2023/04/09 05:43:58;;;;;;;7.57;6.82;;;;;;;2.70;100.00;101880.69;6004672;23;20027;-68
2023/04/09 05:46:28;;;;;;;9.40;7.53;;;;;;;3.57;100.00;102004.25;5999700;23;20036;-68
2023/04/09 05:48:55;;;;;;;10.80;9.23;;;;;;;3.71;100.00;102008.53;6002913;23;20494;-67
2023/04/09 05:51:21;;;;;;;8.50;7.70;;;;;;;3.83;100.00;102005.03;6002439;23;20031;-68
2023/04/09 05:53:48;;;;;;;12.02;7.07;;;;;;;3.93;100.00;102007.59;5998913;23;20019;-68
2023/04/09 05:56:15;;;;;;;9.20;8.38;;;;;;;3.95;100.00;102002.41;5991183;23;20130;-69
2023/04/09 05:58:41;;;;;;;15.45;9.05;;;;;;;3.91;100.00;101978.19;5997141;23;20030;-69
2023/04/09 06:01:09;;;;;;;11.75;9.38;;;;;;;3.91;100.00;101967.78;6001876;23;20055;-68
2023/04/09 06:03:35;;;;;;;17.35;8.60;;;;;;;4.21;100.00;102007.50;5990243;23;20047;-68
2023/04/09 06:06:02;;;;;;;18.30;10.23;;;;;;;4.06;100.00;101973.78;6000925;23;20632;-68
2023/04/09 06:08:28;;;;;;;16.92;9.05;;;;;;;4.36;100.00;102004.81;5986896;23;20740;-69
2023/04/09 06:10:55;;;;;;;10.55;9.57;;;;;;;4.45;100.00;102006.50;5999195;23;20035;-68
2023/04/09 06:13:21;;;;;;;13.07;8.48;;;;;;;4.56;100.00;102007.28;5991114;23;20017;-69
2023/04/09 06:15:48;;;;;;;11.88;9.52;;;;;;;4.68;100.00;102008.94;5989067;23;20028;-67
2023/04/09 06:18:14;;;;;;;10.63;9.55;;;;;;;4.83;100.00;102007.13;6001338;23;20104;-69
2023/04/09 06:20:40;;;;;;;10.68;7.50;;;;;;;4.91;100.00;102005.31;5990797;23;20111;-69
2023/04/09 06:23:07;;;;;;;11.10;9.20;;;;;;;4.60;100.00;101938.78;6000824;23;20023;-68
2023/04/09 06:25:35;;;;;;;10.43;7.35;;;;;;;4.53;100.00;101899.84;6003533;23;20035;-69
2023/04/09 06:28:02;;;;;;;21.67;9.10;;;;;;;5.02;100.00;101959.28;6008250;23;20051;-68
2023/04/09 06:30:29;;;;;;;11.38;10.23;;;;;;;5.53;100.00;102014.34;5992322;23;20097;-68
2023/04/09 06:32:56;;;;;;;13.30;9.18;;;;;;;5.65;100.00;102018.53;6001148;23;20031;-69
2023/04/09 06:35:22;;;;;;;8.07;6.80;;;;;;;5.46;100.00;101952.78;5989722;23;20042;-68
2023/04/09 06:37:49;;;;;;;9.32;8.57;;;;;;;5.67;100.00;101956.00;6004358;23;20643;-68
2023/04/09 06:40:15;;;;;;;17.90;10.80;;;;;;;6.05;100.00;102002.47;6000170;23;20027;-69
2023/04/09 06:42:42;;;;;;;10.75;7.68;;;;;;;6.18;100.00;102016.22;5999615;23;20082;-68
2023/04/09 06:45:11;;;;;;;18.98;10.48;;;;;;;6.40;100.00;102014.22;5996523;23;20116;-68
2023/04/09 06:47:37;;;;;;;12.05;7.85;;;;;;;6.39;100.00;101989.00;6003597;23;20650;-69
2023/04/09 06:50:04;;;;;;;11.23;8.73;;;;;;;6.37;100.00;101967.31;6000469;23;20035;-71
2023/04/09 06:52:30;;;;;;;11.55;8.90;;;;;;;6.80;100.00;102005.81;5997071;23;20082;-69
2023/04/09 06:54:57;;;;;;;12.15;8.77;;;;;;;6.96;100.00;102006.44;5992565;23;20352;-69
2023/04/09 06:57:25;;;;;;;8.45;7.68;;;;;;;5.92;100.00;101803.72;5999179;23;20019;-71
2023/04/09 06:59:51;;;;;;;10.18;6.88;;;;;;;7.30;100.00;102000.66;5995842;23;20043;-71
2023/04/09 07:02:18;;;;;;;11.98;7.97;;;;;;;6.97;100.00;101924.63;6001227;23;20031;-69
2023/04/09 07:04:44;;;;;;;10.05;8.07;;;;;;;7.63;100.00;101990.44;5982474;23;20019;-70
2023/04/09 07:07:11;;;;;;;10.32;7.13;;;;;;;7.77;100.00;101977.97;5993986;23;20026;-69
2023/04/09 07:09:38;;;;;;;10.55;7.20;;;;;;;7.85;100.00;101952.53;5992917;23;20365;-68
2023/04/09 07:12:04;;;;;;;8.75;7.78;;;;;;;8.04;100.00;101942.59;6003836;23;20065;-70
2023/04/09 07:14:31;;;;;;;8.05;7.15;;;;;;;8.16;100.00;101947.53;5977232;23;20038;-69
2023/04/09 07:16:57;;;;;;;7.20;6.55;;;;;;;8.35;100.00;101937.50;5997508;23;20412;-69
2023/04/09 07:19:23;;;;;;;9.57;7.82;;;;;;;8.18;100.00;101863.84;5999454;23;20090;-69
2023/04/09 07:21:50;;;;;;;9.88;7.32;;;;;;;8.45;98.43;101882.41;5990439;23;20016;-69
2023/04/09 07:24:16;;;;;;;9.52;7.18;;;;;;;8.61;95.98;101877.66;5999777;23;20031;-69
2023/04/09 07:26:43;;;;;;;7.55;6.82;;;;;;;8.68;92.73;101858.25;5999223;23;20517;-70
2023/04/09 07:29:09;;;;;;;12.32;6.53;;;;;;;8.55;92.95;101813.25;5996146;23;20107;-70
2023/04/09 07:31:35;;;;;;;8.77;7.68;;;;;;;8.94;88.96;101836.63;5995163;23;20073;-68
2023/04/09 07:34:02;;;;;;;7.15;6.45;;;;;;;9.03;86.26;101810.22;5996983;23;20103;-69
2023/04/09 07:36:30;;;;;;;11.43;6.55;;;;;;;9.12;84.16;101788.13;5996244;23;20426;-69
2023/04/09 07:38:57;;;;;;;11.10;6.72;;;;;;;9.19;82.15;101759.09;5979025;23;20031;-69
2023/04/09 07:41:23;;;;;;;9.73;7.72;;;;;;;9.14;82.27;101733.94;6004371;23;20031;-69
2023/04/09 07:43:50;;;;;;;9.38;6.97;;;;;;;9.41;81.35;101755.84;5973920;23;20359;-69
2023/04/09 07:46:20;;;;;;;9.25;7.85;;;;;;;9.50;78.96;101720.66;5996328;23;20784;-69
2023/04/09 07:48:48;;;;;;;8.45;7.70;;;;;;;9.51;77.91;101697.03;5998790;23;20075;-69
2023/04/09 07:51:15;;;;;;;10.27;7.68;;;;;;;9.77;79.25;101727.63;5974828;23;20640;-69
2023/04/09 07:53:41;;;;;;;8.23;6.75;;;;;;;9.88;78.49;101729.94;5996904;23;20030;-70
2023/04/09 07:56:08;;;;;;;8.52;6.50;;;;;;;9.95;78.62;101733.19;5994907;23;20310;-70
2023/04/09 07:58:36;;;;;;;8.13;6.70;;;;;;;10.08;77.81;101710.03;5992965;23;20027;-69
2023/04/09 08:01:03;;;;;;;7.57;6.70;;;;;;;10.22;76.79;101701.69;6000677;23;20099;-69
2023/04/09 08:03:30;;;;;;;9.23;7.60;;;;;;;10.19;74.79;101655.44;6001903;23;20015;-69
2023/04/09 08:05:57;;;;;;;7.65;6.15;;;;;;;9.81;74.30;101580.75;5987769;23;20035;-69
2023/04/09 08:08:23;;;;;;;13.48;6.85;;;;;;;10.35;73.58;101638.28;6002495;23;20039;-68
2023/04/09 08:10:50;;;;;;;10.68;7.10;;;;;;;10.45;73.72;101637.94;5992122;23;20050;-70
2023/04/09 08:13:16;;;;;;;15.70;6.30;;;;;;;10.55;72.94;101628.81;6004010;23;20442;-70
2023/04/09 08:15:43;;;;;;;6.90;6.28;;;;;;;10.56;72.61;101618.28;6002589;23;20075;-70
2023/04/09 08:18:09;;;;;;;8.23;7.13;;;;;;;10.72;73.02;101620.31;5999688;23;20023;-72
2023/04/09 08:20:36;;;;;;;7.40;6.53;;;;;;;10.86;71.51;101597.00;5993905;23;20037;-69
2023/04/09 08:23:03;;;;;;;6.78;5.90;;;;;;;10.92;70.66;101583.63;5989994;23;20032;-69
2023/04/09 08:25:29;;;;;;;10.98;7.25;;;;;;;10.98;71.06;101587.78;5994055;23;20027;-69
2023/04/09 08:27:56;;;;;;;7.75;6.97;;;;;;;11.13;70.21;101571.41;5995358;23;20046;-69
2023/04/09 08:30:23;;;;;;;11.23;7.63;;;;;;;10.98;69.13;101528.25;5981415;23;20415;-69
2023/04/09 08:32:49;;;;;;;8.82;6.53;;;;;;;11.17;68.61;101532.75;5997728;23;20057;-69
2023/04/09 08:35:16;;;;;;;8.70;7.75;;;;;;;11.28;67.98;101530.50;5991289;23;20037;-69
2023/04/09 08:37:42;;;;;;;7.68;6.88;;;;;;;11.40;67.32;101502.00;5995554;23;20029;-70
2023/04/09 08:40:10;;;;;;;9.00;7.45;;;;;;;11.37;66.83;101471.47;6004689;23;20089;-70
2023/04/09 08:42:44;;;;;;;8.63;6.13;;;;;;;11.62;65.50;101479.13;5984577;23;20027;-69
2023/04/09 08:45:11;;;;;;;12.63;7.13;;;;;;;11.65;65.90;101449.22;6002875;23;20043;-70
2023/04/09 08:47:41;;;;;;;10.30;6.53;;;;;;;11.68;64.74;101426.25;5999890;23;20031;-70
2023/04/09 08:50:08;;;;;;;8.05;7.07;;;;;;;11.79;63.84;101436.31;5992254;23;20035;-70
2023/04/09 08:52:35;;;;;;;9.23;6.47;;;;;;;11.55;63.96;101373.41;5999802;23;20039;-70
2023/04/09 08:55:02;;;;;;;7.53;6.68;;;;;;;12.08;64.03;101431.50;5994349;23;20034;-69
2023/04/09 08:57:29;;;;;;;6.85;6.15;;;;;;;12.13;62.71;101383.00;5998611;23;20306;-70
2023/04/09 08:59:56;;;;;;;7.57;6.63;;;;;;;12.45;60.75;101370.06;5983121;23;20135;-70
2023/04/09 09:02:23;;;;;;;6.03;5.45;;;;;;;12.24;59.54;101289.53;5998296;23;20018;-69
2023/04/09 09:04:49;;;;;;;6.53;5.93;;;;;;;12.41;57.75;101255.34;5995152;23;20577;-70
2023/04/09 09:07:16;;;;;;;6.50;5.90;;;;;;;12.49;58.99;101289.16;6003457;23;20027;-69
2023/04/09 09:09:55;;;;;;;7.18;6.57;;;;;;;12.63;58.05;101283.16;5979335;23;20031;-69
2023/04/09 09:12:31;;;;;;;7.40;6.05;;;;;;;12.66;55.89;101202.25;5971153;23;20030;-68
2023/04/09 09:14:58;;;;;;;6.93;6.22;;;;;;;12.72;57.47;101267.75;5989817;23;20549;-71
2023/04/09 09:17:25;;;;;;;9.80;7.22;;;;;;;12.72;56.15;101195.81;5997539;23;20022;-69
2023/04/09 09:19:51;;;;;;;11.90;6.90;;;;;;;12.81;58.33;101276.97;5988021;23;20133;-69
2023/04/09 09:22:18;;;;;;;8.32;6.45;;;;;;;12.86;56.25;101176.63;6001677;23;20031;-69
2023/04/09 09:24:50;;;;;;;7.38;6.18;;;;;;;13.17;55.95;101197.75;5994040;23;20094;-70
2023/04/09 09:27:39;;;;;;;6.70;6.10;;;;;;;12.86;54.09;101066.00;5995363;23;20023;-66
2023/04/09 09:30:07;;;;;;;6.45;5.95;;;;;;;13.17;53.27;101094.97;6000023;23;20045;-70
2023/04/09 09:32:34;;;;;;;6.32;5.78;;;;;;;13.29;52.75;101077.63;5990717;23;20566;-69
2023/04/09 09:35:04;;;;;;;6.10;5.70;;;;;;;13.37;52.70;101082.47;6003548;23;20542;-70
2023/04/09 09:37:31;;;;;;;6.47;5.88;;;;;;;13.50;53.64;101101.88;5989941;23;20536;-70
2023/04/09 09:39:59;;;;;;;6.32;5.82;;;;;;;13.22;52.19;101004.22;5994517;23;20027;-69
2023/04/09 09:42:28;;;;;;;6.10;5.53;;;;;;;13.46;50.97;101009.88;5987898;23;20031;-70
2023/04/09 09:44:58;;;;;;;7.32;6.28;;;;;;;13.52;51.77;101055.19;5997884;23;20098;-69
2023/04/09 09:47:30;;;;;;;5.90;5.50;;;;;;;13.68;49.67;100986.56;6000727;23;20035;-72
2023/04/09 09:50:04;;;;;;;10.30;6.25;;;;;;;13.50;51.36;101001.69;6005716;23;20090;-70
2023/04/09 09:52:31;;;;;;;5.70;5.30;;;;;;;13.25;50.34;100912.66;5960792;23;20597;-71
2023/04/09 09:55:04;;;;;;;6.85;6.32;;;;;;;13.61;49.63;100939.53;6002484;23;20027;-70
2023/04/09 09:57:41;;;;;;;14.85;14.05;;;;;;;13.60;48.89;100909.69;5972132;23;20027;-70
2023/04/09 10:00:11;;;;;;;5.65;5.25;;;;;;;13.20;49.37;100863.81;5931909;23;20030;-70
2023/04/09 10:02:55;;;;;;;5.95;5.53;;;;;;;13.44;48.94;100882.56;5963946;23;20596;-69
2023/04/09 10:05:25;;;;;;;6.32;5.80;;;;;;;13.61;47.60;100836.69;5978517;23;20094;-68
2023/04/09 10:07:56;;;;;;;6.35;5.85;;;;;;;13.84;48.49;100912.59;5998899;23;20239;-69
2023/04/09 10:10:24;;;;;;;6.03;5.57;;;;;;;14.03;47.98;100922.88;5993991;23;20015;-69
2023/04/09 10:12:51;;;;;;;7.13;6.45;;;;;;;14.28;47.60;100911.56;5997925;23;20019;-70
2023/04/09 10:15:18;;;;;;;6.72;6.03;;;;;;;14.50;46.52;100942.72;5993175;23;20069;-69
2023/04/09 10:17:45;;;;;;;6.35;5.85;;;;;;;14.55;46.82;100950.34;5998123;23;20029;-68
2023/04/09 10:20:18;;;;;;;6.57;5.85;;;;;;;14.69;46.25;100939.78;5988666;23;20522;-68
2023/04/09 10:22:48;;;;;;;6.43;5.82;;;;;;;14.73;47.61;100995.88;5968081;23;21114;-65
2023/04/09 10:25:15;;;;;;;6.40;5.90;;;;;;;14.70;47.83;101002.22;6005873;23;20008;-66
2023/04/09 10:27:45;;;;;;;7.53;5.85;;;;;;;14.84;46.85;101009.25;6000192;23;20071;-67
2023/04/09 10:30:33;;;;;;;5.90;5.40;;;;;;;15.18;47.25;101059.91;5999478;23;20019;-65
2023/04/09 10:33:12;;;;;;;7.05;6.40;;;;;;;15.24;46.04;101000.50;5993000;23;20023;-66
2023/04/09 10:35:39;;;;;;;5.97;5.68;;;;;;;15.01;46.55;100996.72;6006052;23;20036;-70
2023/04/09 10:38:09;;;;;;;6.63;6.05;;;;;;;15.01;44.76;100957.06;5996567;23;20102;-70
2023/04/09 10:40:41;;;;;;;6.15;5.63;;;;;;;15.06;45.46;100998.13;5999059;23;20056;-70
2023/04/09 10:43:09;;;;;;;6.40;5.85;;;;;;;14.42;45.80;100908.03;5996127;23;20394;-71
2023/04/09 10:45:40;;;;;;;6.75;6.05;;;;;;;14.69;45.97;100984.69;6001433;23;20022;-70
2023/04/09 10:48:13;;;;;;;7.07;6.38;;;;;;;15.08;45.41;101025.28;5985162;23;20033;-70
2023/04/09 10:50:43;;;;;;;7.15;6.03;;;;;;;14.90;45.58;100997.44;6003691;23;20685;-71
2023/04/09 10:53:25;;;;;;;7.47;6.53;;;;;;;15.05;45.81;101024.66;5999451;23;20022;-70
2023/04/09 10:55:52;;;;;;;6.63;6.07;;;;;;;15.04;45.61;101042.31;6002188;23;20052;-70
2023/04/09 10:58:19;;;;;;;7.35;6.60;;;;;;;15.54;45.34;101106.03;6000264;23;20521;-70
2023/04/09 11:00:47;;;;;;;6.75;6.07;;;;;;;15.41;45.04;101086.63;6002782;23;20604;-71
2023/04/09 11:03:27;;;;;;;6.68;6.25;;;;;;;15.25;45.64;101073.56;6003194;23;20033;-71
2023/04/09 11:05:56;;;;;;;6.70;6.10;;;;;;;15.11;44.74;101048.03;6001757;23;20012;-70
2023/04/09 11:08:26;;;;;;;7.22;6.38;;;;;;;14.42;45.44;100986.44;5972301;23;20721;-70
2023/04/09 11:10:57;;;;;;;6.78;6.15;;;;;;;14.95;46.89;101151.25;5992586;23;20095;-70
2023/04/09 11:13:24;;;;;;;6.82;6.18;;;;;;;15.25;45.14;101142.31;6003342;23;20520;-70
2023/04/09 11:15:50;;;;;;;6.38;5.88;;;;;;;15.25;44.42;101086.78;5995957;23;20126;-70
2023/04/09 11:18:22;;;;;;;6.50;5.80;;;;;;;14.97;44.05;101067.44;5997431;23;20057;-70
2023/04/09 11:20:49;;;;;;;6.43;5.90;;;;;;;14.60;45.95;101072.44;5995940;23;20050;-70
2023/04/09 11:23:16;;;;;;;7.18;6.57;;;;;;;15.11;45.15;101130.84;5991683;23;20589;-69
2023/04/09 11:25:48;;;;;;;6.55;5.95;;;;;;;15.79;45.06;101203.16;5991773;23;20664;-70